createdAt,value
2023-02-18T00:01:40.475Z,12.15
2023-02-18T00:04:08.333Z,12.08
2023-02-18T00:06:37.626Z,12.07
2023-02-18T00:09:08.888Z,12.09
2023-02-18T00:11:38.187Z,12.17
2023-02-18T00:14:08.141Z,12.13
2023-02-18T00:16:35.824Z,12.10
2023-02-18T00:19:06.093Z,12.11
2023-02-18T00:21:35.304Z,12.19
2023-02-18T00:24:03.295Z,12.09
2023-02-18T00:26:32.454Z,12.05
2023-02-18T00:29:00.860Z,12.10
2023-02-18T00:31:33.070Z,12.25
2023-02-18T00:34:06.300Z,12.12
2023-02-18T00:36:36.209Z,12.08
2023-02-18T00:39:07.045Z,11.96
2023-02-18T00:41:37.061Z,11.97
2023-02-18T00:44:05.225Z,11.95
2023-02-18T00:46:33.267Z,11.80
2023-02-18T00:49:02.324Z,11.75
2023-02-18T00:51:30.184Z,11.73
2023-02-18T00:53:59.067Z,11.71
2023-02-18T00:56:26.838Z,11.81
2023-02-18T00:58:55.943Z,11.77
2023-02-18T01:01:24.338Z,11.65
2023-02-18T01:03:52.169Z,11.74
2023-02-18T01:06:21.981Z,11.62
2023-02-18T01:08:50.021Z,11.56
2023-02-18T01:11:17.810Z,11.60
2023-02-18T01:13:47.812Z,11.54
2023-02-18T01:16:18.081Z,11.42
2023-02-18T01:18:48.269Z,11.36
2023-02-18T01:21:16.642Z,11.43
2023-02-18T01:23:44.614Z,11.52
2023-02-18T01:26:13.174Z,11.45
2023-02-18T01:28:41.856Z,11.48
2023-02-18T01:31:13.296Z,11.42
2023-02-18T01:33:42.892Z,11.43
2023-02-18T01:36:11.898Z,11.47
2023-02-18T01:38:40.390Z,11.55
2023-02-18T01:41:08.099Z,11.47
2023-02-18T01:43:36.375Z,11.46
2023-02-18T01:46:13.450Z,11.45
2023-02-18T01:48:45.442Z,11.63
2023-02-18T01:51:18.270Z,11.49
2023-02-18T01:53:51.324Z,11.58
2023-02-18T01:56:25.595Z,11.62
2023-02-18T01:58:56.082Z,11.50
2023-02-18T02:01:25.057Z,11.56
2023-02-18T02:03:54.198Z,11.55
2023-02-18T02:06:24.647Z,11.55
2023-02-18T02:08:56.088Z,11.50
2023-02-18T02:12:00.959Z,11.51
2023-02-18T02:14:44.194Z,11.47
2023-02-18T02:21:50.503Z,11.54
2023-02-18T02:24:59.102Z,11.57
2023-02-18T02:27:39.711Z,11.56
2023-02-18T02:30:43.009Z,11.54
2023-02-18T02:33:58.054Z,11.70
2023-02-18T02:36:32.395Z,11.65
2023-02-18T02:39:08.976Z,11.69
2023-02-18T02:41:48.144Z,11.68
2023-02-18T02:44:23.514Z,11.71
2023-02-18T02:46:54.960Z,11.73
2023-02-18T02:49:36.707Z,11.54
2023-02-18T02:52:10.812Z,11.46
2023-02-18T02:54:38.834Z,11.38
2023-02-18T02:57:30.850Z,11.43
2023-02-18T03:00:11.106Z,11.33
2023-02-18T03:02:53.660Z,11.41
2023-02-18T03:05:32.166Z,11.25
2023-02-18T03:08:18.628Z,11.44
2023-02-18T03:10:59.484Z,11.39
2023-02-18T03:13:38.390Z,11.45
2023-02-18T03:16:15.548Z,11.52
2023-02-18T03:18:49.160Z,11.40
2023-02-18T03:21:24.808Z,11.47
2023-02-18T03:23:58.567Z,11.46
2023-02-18T03:26:32.115Z,11.37
2023-02-18T03:29:04.190Z,11.40
2023-02-18T03:31:35.678Z,11.42
2023-02-18T03:34:08.767Z,11.32
2023-02-18T03:36:38.736Z,11.37
2023-02-18T03:39:12.293Z,11.36
2023-02-18T03:41:40.292Z,11.49
2023-02-18T03:44:10.585Z,11.54
2023-02-18T03:46:40.703Z,11.49
2023-02-18T03:49:09.128Z,11.55
2023-02-18T03:51:36.884Z,11.56
2023-02-18T03:54:05.065Z,11.53
2023-02-18T03:56:35.575Z,11.52
2023-02-18T03:59:04.316Z,11.58
2023-02-18T04:01:32.025Z,11.64
2023-02-18T04:03:59.775Z,11.55
2023-02-18T04:06:27.713Z,11.59
2023-02-18T04:08:55.612Z,11.62
2023-02-18T04:11:23.383Z,11.57
2023-02-18T04:13:52.526Z,11.55
2023-02-18T04:16:20.462Z,11.51
2023-02-18T04:18:48.795Z,11.46
2023-02-18T04:21:16.476Z,11.41
2023-02-18T04:23:44.303Z,11.43
2023-02-18T04:26:12.076Z,11.43
2023-02-18T04:28:40.200Z,11.44
2023-02-18T04:31:09.571Z,11.42
2023-02-18T04:33:37.360Z,11.49
2023-02-18T04:36:05.934Z,11.42
2023-02-18T04:38:34.105Z,11.36
2023-02-18T04:41:02.070Z,11.31
2023-02-18T04:43:30.008Z,11.24
2023-02-18T04:45:57.810Z,11.34
2023-02-18T04:48:26.914Z,11.32
2023-02-18T04:50:54.726Z,11.35
2023-02-18T04:53:22.497Z,11.30
2023-02-18T04:55:51.798Z,11.33
2023-02-18T04:58:19.680Z,11.36
2023-02-18T05:00:47.760Z,11.37
2023-02-18T05:03:15.960Z,11.42
2023-02-18T05:05:46.030Z,11.35
2023-02-18T05:08:13.781Z,11.26
2023-02-18T05:10:41.521Z,11.34
2023-02-18T05:13:09.257Z,11.34
2023-02-18T05:15:37.138Z,11.35
2023-02-18T05:18:05.230Z,11.33
2023-02-18T05:20:33.759Z,11.57
2023-02-18T05:23:03.365Z,11.59
2023-02-18T05:25:31.333Z,11.47
2023-02-18T05:27:59.708Z,11.47
2023-02-18T05:30:27.404Z,11.34
2023-02-18T05:32:55.069Z,11.34
2023-02-18T05:35:22.798Z,11.28
2023-02-18T05:37:50.465Z,11.42
2023-02-18T05:40:19.680Z,11.40
2023-02-18T05:42:48.042Z,11.39
2023-02-18T05:45:14.770Z,11.55
2023-02-18T05:47:42.566Z,11.52
2023-02-18T05:50:10.652Z,11.45
2023-02-18T05:52:38.552Z,11.45
2023-02-18T05:55:07.088Z,11.40
2023-02-18T05:57:36.747Z,11.44
2023-02-18T06:00:05.677Z,11.54
2023-02-18T06:02:33.638Z,11.51
2023-02-18T06:05:01.717Z,11.49
2023-02-18T06:07:29.534Z,11.41
2023-02-18T06:09:57.386Z,11.43
2023-02-18T06:12:25.153Z,11.32
2023-02-18T06:14:54.225Z,11.31
2023-02-18T06:17:22.876Z,11.32
2023-02-18T06:19:50.978Z,11.33
2023-02-18T06:22:18.716Z,11.34
2023-02-18T06:24:46.688Z,11.28
2023-02-18T06:27:15.593Z,11.34
2023-02-18T06:29:43.981Z,11.26
2023-02-18T06:32:13.122Z,11.44
2023-02-18T06:34:40.926Z,11.34
2023-02-18T06:37:08.618Z,11.24
2023-02-18T06:39:37.470Z,11.36
2023-02-18T06:42:05.749Z,11.34
2023-02-18T06:44:33.543Z,11.26
2023-02-18T06:47:01.287Z,11.28
2023-02-18T06:49:30.946Z,11.20
2023-02-18T06:51:58.922Z,11.34
2023-02-18T06:54:26.691Z,11.30
2023-02-18T06:56:54.489Z,11.30
2023-02-18T06:59:22.233Z,11.33
2023-02-18T07:01:50.517Z,11.30
2023-02-18T07:04:18.318Z,11.26
2023-02-18T07:06:47.584Z,11.25
2023-02-18T07:09:15.831Z,11.23
2023-02-18T07:11:43.565Z,11.30
2023-02-18T07:14:11.304Z,11.35
2023-02-18T07:16:39.767Z,11.26
2023-02-18T07:19:07.529Z,11.27
2023-02-18T07:21:35.168Z,11.33
2023-02-18T07:24:04.716Z,11.32
2023-02-18T07:26:32.489Z,11.44
2023-02-18T07:29:00.226Z,11.40
2023-02-18T07:31:28.577Z,11.31
2023-02-18T07:33:56.482Z,11.37
2023-02-18T07:36:24.583Z,11.49
2023-02-18T07:38:52.434Z,11.43
2023-02-18T07:41:23.730Z,11.45
2023-02-18T07:43:52.005Z,11.63
2023-02-18T07:46:20.240Z,11.66
2023-02-18T07:48:47.894Z,11.72
2023-02-18T07:51:15.653Z,11.68
2023-02-18T07:53:43.725Z,11.54
2023-02-18T07:56:12.015Z,11.52
2023-02-18T07:58:41.701Z,11.65
2023-02-18T08:01:11.814Z,11.65
2023-02-18T08:03:40.204Z,11.65
2023-02-18T08:06:09.591Z,11.63
2023-02-18T08:08:37.695Z,11.73
2023-02-18T08:11:18.070Z,11.81
2023-02-18T08:13:48.204Z,11.85
2023-02-18T08:16:16.085Z,11.83
2023-02-18T08:18:45.417Z,11.83
2023-02-18T08:21:13.283Z,11.75
2023-02-18T08:23:41.793Z,11.75
2023-02-18T08:26:10.387Z,11.77
2023-02-18T08:28:43.229Z,11.95
2023-02-18T08:31:18.117Z,11.79
2023-02-18T08:33:45.941Z,11.80
2023-02-18T08:36:13.644Z,11.86
2023-02-18T08:38:41.942Z,11.87
2023-02-18T08:41:11.214Z,11.81
2023-02-18T08:43:39.056Z,11.79
2023-02-18T08:46:07.469Z,11.87
2023-02-18T08:48:36.610Z,11.93
2023-02-18T08:51:13.471Z,12.00
2023-02-18T08:53:41.901Z,12.03
2023-02-18T08:56:10.855Z,12.14
2023-02-18T08:58:39.014Z,12.06
2023-02-18T09:01:08.824Z,12.17
2023-02-18T09:03:38.741Z,12.31
2023-02-18T09:06:07.771Z,12.30
2023-02-18T09:08:36.021Z,12.32
2023-02-18T09:11:06.657Z,12.37
2023-02-18T09:13:35.351Z,12.29
2023-02-18T09:16:06.322Z,12.30
2023-02-18T09:18:35.391Z,12.24
2023-02-18T09:21:07.507Z,12.44
2023-02-18T09:23:36.601Z,12.39
2023-02-18T09:26:06.321Z,12.36
2023-02-18T09:28:34.289Z,12.43
2023-02-18T09:31:06.723Z,12.50
2023-02-18T09:33:37.253Z,12.72
2023-02-18T09:36:08.204Z,12.46
2023-02-18T09:38:36.501Z,12.41
2023-02-18T09:41:08.561Z,12.36
2023-02-18T09:43:42.975Z,12.35
2023-02-18T09:46:31.616Z,12.32
2023-02-18T09:49:03.767Z,12.25
2023-02-18T09:51:33.072Z,12.19
2023-02-18T09:54:01.017Z,12.15
2023-02-18T09:56:32.092Z,12.19
2023-02-18T09:59:03.116Z,12.15
2023-02-18T10:01:35.255Z,12.12
2023-02-18T10:04:08.192Z,12.11
2023-02-18T10:06:38.183Z,12.28
2023-02-18T10:09:12.195Z,12.37
2023-02-18T10:11:43.786Z,12.44
2023-02-18T10:14:14.605Z,12.37
2023-02-18T10:16:45.360Z,12.45
2023-02-18T10:19:22.972Z,12.46
2023-02-18T10:21:54.400Z,12.40
2023-02-18T10:24:30.661Z,12.37
2023-02-18T10:27:00.843Z,12.40
2023-02-18T10:29:30.207Z,12.30
2023-02-18T10:32:05.902Z,12.35
2023-02-18T10:34:42.731Z,12.43
2023-02-18T10:37:28.738Z,12.27
2023-02-18T10:40:05.821Z,12.19
2023-02-18T10:42:47.686Z,12.12
2023-02-18T10:45:27.484Z,12.20
2023-02-18T10:48:09.302Z,12.20
2023-02-18T10:50:40.737Z,12.19
2023-02-18T10:53:13.724Z,12.13
2023-02-18T10:55:44.254Z,12.20
2023-02-18T10:58:35.062Z,12.19
2023-02-18T11:01:08.547Z,12.24
2023-02-18T11:03:44.785Z,12.29
2023-02-18T11:06:23.619Z,12.55
2023-02-18T11:08:55.709Z,12.49
2023-02-18T11:11:26.763Z,12.48
2023-02-18T11:13:56.239Z,12.51
2023-02-18T11:16:25.027Z,12.53
2023-02-18T11:18:53.639Z,12.44
2023-02-18T11:21:30.301Z,12.49
2023-02-18T11:24:09.464Z,12.60
2023-02-18T11:26:40.038Z,12.68
2023-02-18T11:29:15.689Z,12.75
2023-02-18T11:31:46.114Z,12.93
2023-02-18T11:34:21.284Z,12.97
2023-02-18T11:36:50.688Z,13.03
2023-02-18T11:39:22.998Z,13.03
2023-02-18T11:41:57.398Z,13.14
2023-02-18T11:44:30.647Z,12.90
2023-02-18T11:47:01.397Z,12.83
2023-02-18T11:49:30.915Z,12.87
2023-02-18T11:52:06.773Z,12.71
2023-02-18T11:54:36.131Z,12.82
2023-02-18T11:57:06.614Z,12.86
2023-02-18T11:59:36.823Z,12.85
2023-02-18T12:02:16.297Z,12.80
2023-02-18T12:04:48.440Z,12.59
2023-02-18T12:07:20.111Z,12.63
2023-02-18T12:09:54.804Z,12.54
2023-02-18T12:12:28.505Z,12.53
2023-02-18T12:14:57.385Z,12.60
2023-02-18T12:17:46.733Z,12.60
2023-02-18T12:20:33.074Z,12.50
2023-02-18T12:23:12.962Z,12.64
2023-02-18T12:25:52.468Z,12.66
2023-02-18T12:28:34.982Z,12.71
2023-02-18T12:31:22.937Z,12.65
2023-02-18T12:34:05.319Z,12.57
2023-02-18T12:36:51.140Z,12.71
2023-02-18T12:39:36.415Z,12.61
2023-02-18T12:42:24.613Z,12.60
2023-02-18T12:45:09.755Z,12.64
2023-02-18T12:47:54.287Z,12.72
2023-02-18T12:50:36.319Z,12.75
2023-02-18T12:53:34.130Z,12.83
2023-02-18T12:56:25.902Z,12.79
2023-02-18T12:59:05.875Z,12.78
2023-02-18T13:01:44.925Z,12.78
2023-02-18T13:04:37.259Z,12.86
2023-02-18T13:07:24.156Z,12.89
2023-02-18T13:10:12.397Z,12.84
2023-02-18T13:12:47.092Z,12.87
2023-02-18T13:15:21.726Z,12.77
2023-02-18T13:17:51.019Z,12.87
2023-02-18T13:20:26.257Z,12.78
2023-02-18T13:22:57.801Z,12.73
2023-02-18T13:25:26.293Z,12.82
2023-02-18T13:28:10.044Z,12.88
2023-02-18T13:30:45.702Z,12.85
2023-02-18T13:33:23.524Z,12.84
2023-02-18T13:35:59.709Z,12.72
2023-02-18T13:38:51.158Z,12.82
2023-02-18T13:41:21.765Z,12.83
2023-02-18T13:43:50.702Z,12.86
2023-02-18T13:46:22.095Z,12.89
2023-02-18T13:48:58.288Z,12.93
2023-02-18T13:51:35.359Z,13.06
2023-02-18T13:54:17.062Z,12.95
2023-02-18T13:56:47.600Z,13.06
2023-02-18T13:59:22.131Z,13.10
2023-02-18T14:01:54.916Z,13.20
2023-02-18T14:04:59.915Z,13.16
2023-02-18T14:07:40.208Z,13.21
2023-02-18T14:10:27.585Z,13.26
2023-02-18T14:13:19.322Z,13.21
2023-02-18T14:16:04.979Z,13.46
2023-02-18T14:18:51.003Z,13.81
2023-02-18T14:21:23.477Z,13.64
2023-02-18T14:24:04.125Z,13.36
2023-02-18T14:26:37.440Z,13.44
2023-02-18T14:29:26.093Z,13.49
2023-02-18T14:31:58.654Z,13.35
2023-02-18T14:35:03.569Z,13.15
2023-02-18T14:38:00.466Z,13.02
2023-02-18T14:40:45.005Z,13.03
2023-02-18T14:43:24.742Z,13.03
2023-02-18T14:46:10.703Z,12.84
2023-02-18T14:48:59.641Z,12.89
2023-02-18T14:51:32.531Z,13.10
2023-02-18T14:54:07.580Z,13.11
2023-02-18T14:56:40.843Z,13.02
2023-02-18T14:59:09.891Z,13.01
2023-02-18T15:01:39.285Z,13.03
2023-02-18T15:04:07.866Z,12.98
2023-02-18T15:06:37.752Z,13.03
2023-02-18T15:09:17.185Z,13.08
2023-02-18T15:11:50.934Z,12.95
2023-02-18T15:14:22.321Z,12.78
2023-02-18T15:16:51.785Z,12.74
2023-02-18T15:19:23.840Z,12.65
2023-02-18T15:21:55.996Z,12.60
2023-02-18T15:24:32.914Z,12.67
2023-02-18T15:27:02.847Z,12.50
2023-02-18T15:29:34.917Z,12.52
2023-02-18T15:32:08.264Z,12.51
2023-02-18T15:34:39.434Z,12.48
2023-02-18T15:37:13.868Z,12.54
2023-02-18T15:39:44.615Z,12.41
2023-02-18T15:42:20.442Z,12.37
2023-02-18T15:44:51.579Z,12.24
2023-02-18T15:47:21.068Z,12.18
2023-02-18T15:49:54.909Z,12.25
2023-02-18T15:52:28.617Z,12.27
2023-02-18T15:55:02.228Z,12.17
2023-02-18T15:57:31.834Z,12.08
2023-02-18T16:00:17.510Z,12.15
2023-02-18T16:02:56.315Z,12.26
2023-02-18T16:05:29.289Z,12.15
2023-02-18T16:08:06.923Z,12.02
2023-02-18T16:10:50.503Z,11.95
2023-02-18T16:13:20.007Z,12.00
2023-02-18T16:15:51.228Z,12.09
2023-02-18T16:18:29.838Z,11.98
2023-02-18T16:21:02.781Z,11.89
2023-02-18T16:23:37.802Z,11.99
2023-02-18T16:26:27.987Z,12.04
2023-02-18T16:29:02.377Z,11.85
2023-02-18T16:31:31.636Z,11.86
2023-02-18T16:34:03.193Z,11.85
2023-02-18T16:36:31.371Z,11.77
2023-02-18T16:39:02.352Z,11.81
2023-02-18T16:41:32.178Z,11.70
2023-02-18T16:44:00.765Z,11.70
2023-02-18T16:46:30.183Z,11.67
2023-02-18T16:48:58.070Z,11.60
2023-02-18T16:51:31.177Z,11.58
2023-02-18T16:54:00.860Z,11.63
2023-02-18T16:56:33.741Z,11.51
2023-02-18T16:59:03.695Z,11.42
2023-02-18T17:01:34.745Z,11.50
2023-02-18T17:04:04.463Z,11.55
2023-02-18T17:06:33.562Z,11.56
2023-02-18T17:09:03.844Z,11.47
2023-02-18T17:11:36.265Z,11.50
2023-02-18T17:14:06.520Z,11.43
2023-02-18T17:16:34.545Z,11.33
2023-02-18T17:19:05.572Z,11.35
2023-02-18T17:21:33.726Z,11.37
2023-02-18T17:24:04.094Z,11.40
2023-02-18T17:26:33.546Z,11.47
2023-02-18T17:29:03.161Z,11.41
2023-02-18T17:31:35.038Z,11.38
2023-02-18T17:34:07.619Z,11.60
2023-02-18T17:36:36.225Z,11.41
2023-02-18T17:39:07.542Z,11.38
2023-02-18T17:41:36.664Z,11.29
2023-02-18T17:44:12.252Z,11.22
2023-02-18T17:46:40.096Z,11.34
2023-02-18T17:49:07.891Z,11.35
2023-02-18T17:51:36.885Z,11.22
2023-02-18T17:54:05.229Z,11.31
2023-02-18T17:56:35.389Z,11.34
2023-02-18T17:59:05.111Z,11.23
2023-02-18T18:01:32.856Z,11.10
2023-02-18T18:04:00.539Z,11.08
2023-02-18T18:06:28.583Z,11.03
2023-02-18T18:08:56.789Z,11.02
2023-02-18T18:11:25.996Z,10.91
2023-02-18T18:13:54.774Z,10.83
2023-02-18T18:16:23.802Z,10.90
2023-02-18T18:18:51.719Z,10.86
2023-02-18T18:21:23.184Z,10.78
2023-02-18T18:23:51.849Z,10.81
2023-02-18T18:26:19.622Z,10.81
2023-02-18T18:28:47.301Z,10.80
2023-02-18T18:31:18.625Z,10.82
2023-02-18T18:33:50.442Z,10.74
2023-02-18T18:36:19.642Z,10.72
2023-02-18T18:38:47.887Z,10.71
2023-02-18T18:41:18.086Z,10.77
2023-02-18T18:43:46.690Z,10.71
2023-02-18T18:46:14.756Z,10.84
2023-02-18T18:48:42.892Z,10.80
2023-02-18T18:51:16.944Z,10.72
2023-02-18T18:53:44.942Z,10.56
2023-02-18T18:56:13.575Z,10.68
2023-02-18T18:58:41.910Z,10.58
2023-02-18T19:01:17.195Z,10.57
2023-02-18T19:03:45.986Z,10.62
2023-02-18T19:06:17.234Z,10.67
2023-02-18T19:08:45.532Z,10.71
2023-02-18T19:11:14.137Z,10.69
2023-02-18T19:13:43.152Z,10.71
2023-02-18T19:16:18.119Z,10.60
2023-02-18T19:18:46.427Z,10.64
2023-02-18T19:21:16.647Z,10.63
2023-02-18T19:23:44.500Z,10.53
2023-02-18T19:26:13.895Z,10.61
2023-02-18T19:28:41.779Z,10.55
2023-02-18T19:31:11.600Z,10.66
2023-02-18T19:33:40.344Z,10.59
2023-02-18T19:36:11.116Z,10.63
2023-02-18T19:38:40.415Z,10.65
2023-02-18T19:41:12.384Z,10.61
2023-02-18T19:43:40.988Z,10.51
2023-02-18T19:46:10.851Z,10.61
2023-02-18T19:48:39.154Z,10.53
2023-02-18T19:51:09.009Z,10.62
2023-02-18T19:53:37.549Z,10.56
2023-02-18T19:56:08.770Z,10.50
2023-02-18T19:58:37.232Z,10.70
2023-02-18T20:01:06.104Z,10.62
2023-02-18T20:03:34.514Z,10.61
2023-02-18T20:06:02.523Z,10.57
2023-02-18T20:08:30.771Z,10.50
2023-02-18T20:10:59.608Z,10.48
2023-02-18T20:13:29.178Z,10.51
2023-02-18T20:15:58.469Z,10.57
2023-02-18T20:18:26.593Z,10.55
2023-02-18T20:20:54.737Z,10.48
2023-02-18T20:23:23.112Z,10.53
2023-02-18T20:25:51.182Z,10.49
2023-02-18T20:28:19.371Z,10.54
2023-02-18T20:30:49.165Z,10.63
2023-02-18T20:33:17.133Z,10.62
2023-02-18T20:35:44.990Z,10.56
2023-02-18T20:38:13.954Z,10.52
2023-02-18T20:40:42.616Z,10.53
2023-02-18T20:43:13.299Z,10.48
2023-02-18T20:45:41.236Z,10.47
2023-02-18T20:48:11.992Z,10.50
2023-02-18T20:50:41.531Z,10.51
2023-02-18T20:53:09.480Z,10.52
2023-02-18T20:55:38.068Z,10.62
2023-02-18T20:58:05.976Z,10.57
2023-02-18T21:00:33.893Z,10.54
2023-02-18T21:03:01.839Z,10.45
2023-02-18T21:05:31.584Z,10.38
2023-02-18T21:07:59.735Z,10.59
2023-02-18T21:10:27.683Z,10.57
2023-02-18T21:12:56.036Z,10.60
2023-02-18T21:15:24.490Z,10.54
2023-02-18T21:17:52.366Z,10.55
2023-02-18T21:20:20.169Z,10.56
2023-02-18T21:22:49.566Z,10.55
2023-02-18T21:25:17.375Z,10.51
2023-02-18T21:27:45.256Z,10.49
2023-02-18T21:30:16.956Z,10.68
2023-02-18T21:32:44.867Z,10.75
2023-02-18T21:35:13.505Z,10.63
2023-02-18T21:37:41.548Z,10.57
2023-02-18T21:40:12.059Z,10.52
2023-02-18T21:42:40.741Z,10.50
2023-02-18T21:45:09.630Z,10.47
2023-02-18T21:47:37.766Z,10.52
2023-02-18T21:50:06.355Z,10.57
2023-02-18T21:52:34.343Z,10.49
2023-02-18T21:55:02.310Z,10.49
2023-02-18T21:57:32.257Z,10.44
2023-02-18T22:00:11.243Z,10.50
2023-02-18T22:02:46.534Z,10.56
2023-02-18T22:05:15.749Z,10.64
2023-02-18T22:07:43.759Z,10.68
2023-02-18T22:10:11.957Z,10.58
2023-02-18T22:12:41.460Z,10.57
2023-02-18T22:15:10.089Z,10.61
2023-02-18T22:17:38.219Z,10.65
2023-02-18T22:20:08.260Z,10.52
2023-02-18T22:22:36.218Z,10.52
2023-02-18T22:25:04.063Z,10.53
2023-02-18T22:27:33.157Z,10.52
2023-02-18T22:30:02.540Z,10.47
2023-02-18T22:32:31.815Z,10.53
2023-02-18T22:35:00.301Z,10.44
2023-02-18T22:37:28.339Z,10.49
2023-02-18T22:39:57.141Z,10.49
2023-02-18T22:42:25.674Z,10.41
2023-02-18T22:44:53.591Z,10.42
2023-02-18T22:47:22.973Z,10.51
2023-02-18T22:49:50.817Z,10.42
2023-02-18T22:52:18.503Z,10.49
2023-02-18T22:54:46.325Z,10.47
2023-02-18T22:57:14.206Z,10.49
2023-02-18T22:59:42.032Z,10.48
2023-02-18T23:02:10.372Z,10.42
2023-02-18T23:04:41.693Z,10.38
2023-02-18T23:07:09.496Z,10.35
2023-02-18T23:09:37.162Z,10.43
2023-02-18T23:12:05.609Z,10.39
2023-02-18T23:14:33.378Z,10.48
2023-02-18T23:17:16.715Z,10.42
2023-02-18T23:19:47.139Z,10.47
2023-02-18T23:22:17.565Z,10.39
2023-02-18T23:24:46.852Z,10.39
2023-02-18T23:27:16.301Z,10.41
2023-02-18T23:29:44.228Z,10.39
2023-02-18T23:32:11.911Z,10.38
2023-02-18T23:34:39.588Z,10.29
2023-02-18T23:37:09.181Z,10.44
2023-02-18T23:39:37.042Z,10.47
2023-02-18T23:42:05.029Z,10.37
2023-02-18T23:44:32.862Z,10.33
2023-02-18T23:47:00.765Z,10.23
2023-02-18T23:49:28.946Z,10.23
2023-02-18T23:51:58.658Z,10.23
2023-02-18T23:54:27.820Z,10.27
2023-02-18T23:56:55.641Z,10.59
2023-02-18T23:59:23.599Z,10.51
